sensor_id;sensor_type;location;lat;lon;timestamp;P1;durP1;ratioP1;P2;durP2;ratioP2
54897;SDS011;40800;52.704;6.398;2023-05-07T00:01:42;66.07;;;61.47;;
54897;SDS011;40800;52.704;6.398;2023-05-07T00:04:08;66.55;;;61.95;;
54897;SDS011;40800;52.704;6.398;2023-05-07T00:06:34;66.22;;;61.75;;
54897;SDS011;40800;52.704;6.398;2023-05-07T00:08:59;65.70;;;60.97;;
54897;SDS011;40800;52.704;6.398;2023-05-07T00:11:26;66.67;;;62.10;;
54897;SDS011;40800;52.704;6.398;2023-05-07T00:13:52;65.10;;;60.63;;
54897;SDS011;40800;52.704;6.398;2023-05-07T00:16:18;68.10;;;63.40;;
54897;SDS011;40800;52.704;6.398;2023-05-07T00:18:43;68.50;;;63.90;;
54897;SDS011;40800;52.704;6.398;2023-05-07T00:21:09;68.57;;;63.67;;
54897;SDS011;40800;52.704;6.398;2023-05-07T00:23:34;68.32;;;63.08;;
54897;SDS011;40800;52.704;6.398;2023-05-07T00:26:00;65.32;;;60.85;;
54897;SDS011;40800;52.704;6.398;2023-05-07T00:28:25;66.50;;;61.80;;
54897;SDS011;40800;52.704;6.398;2023-05-07T00:30:51;67.45;;;62.75;;
54897;SDS011;40800;52.704;6.398;2023-05-07T00:33:17;66.90;;;62.22;;
54897;SDS011;40800;52.704;6.398;2023-05-07T00:35:43;67.25;;;62.55;;
54897;SDS011;40800;52.704;6.398;2023-05-07T00:38:08;64.28;;;59.85;;
54897;SDS011;40800;52.704;6.398;2023-05-07T00:40:34;66.22;;;61.55;;
54897;SDS011;40800;52.704;6.398;2023-05-07T00:42:59;65.70;;;60.85;;
54897;SDS011;40800;52.704;6.398;2023-05-07T00:45:28;64.72;;;60.17;;
54897;SDS011;40800;52.704;6.398;2023-05-07T00:47:55;66.40;;;61.80;;
54897;SDS011;40800;52.704;6.398;2023-05-07T00:50:22;64.95;;;60.33;;
54897;SDS011;40800;52.704;6.398;2023-05-07T00:52:48;65.90;;;60.95;;
54897;SDS011;40800;52.704;6.398;2023-05-07T00:55:14;65.07;;;60.40;;
54897;SDS011;40800;52.704;6.398;2023-05-07T00:57:40;65.70;;;60.83;;
54897;SDS011;40800;52.704;6.398;2023-05-07T01:00:06;65.30;;;60.50;;
54897;SDS011;40800;52.704;6.398;2023-05-07T01:02:34;65.00;;;60.40;;
54897;SDS011;40800;52.704;6.398;2023-05-07T01:05:00;65.45;;;60.83;;
54897;SDS011;40800;52.704;6.398;2023-05-07T01:07:28;61.90;;;57.60;;
54897;SDS011;40800;52.704;6.398;2023-05-07T01:09:54;65.07;;;60.50;;
54897;SDS011;40800;52.704;6.398;2023-05-07T01:12:20;65.28;;;60.75;;
54897;SDS011;40800;52.704;6.398;2023-05-07T01:14:46;63.78;;;59.22;;
54897;SDS011;40800;52.704;6.398;2023-05-07T01:17:14;62.60;;;58.17;;
54897;SDS011;40800;52.704;6.398;2023-05-07T01:19:40;60.35;;;56.05;;
54897;SDS011;40800;52.704;6.398;2023-05-07T01:22:09;62.17;;;57.78;;
54897;SDS011;40800;52.704;6.398;2023-05-07T01:24:40;62.45;;;58.15;;
54897;SDS011;40800;52.704;6.398;2023-05-07T01:27:06;63.80;;;59.53;;
54897;SDS011;40800;52.704;6.398;2023-05-07T01:29:31;62.40;;;58.10;;
54897;SDS011;40800;52.704;6.398;2023-05-07T01:31:58;63.00;;;58.53;;
54897;SDS011;40800;52.704;6.398;2023-05-07T01:34:25;59.78;;;55.70;;
54897;SDS011;40800;52.704;6.398;2023-05-07T01:36:55;59.67;;;55.67;;
54897;SDS011;40800;52.704;6.398;2023-05-07T01:39:24;61.78;;;57.58;;
54897;SDS011;40800;52.704;6.398;2023-05-07T01:41:51;61.20;;;57.38;;
54897;SDS011;40800;52.704;6.398;2023-05-07T01:44:19;61.67;;;57.45;;
54897;SDS011;40800;52.704;6.398;2023-05-07T01:46:45;60.38;;;56.28;;
54897;SDS011;40800;52.704;6.398;2023-05-07T01:49:12;62.15;;;57.92;;
54897;SDS011;40800;52.704;6.398;2023-05-07T01:51:38;59.53;;;55.63;;
54897;SDS011;40800;52.704;6.398;2023-05-07T01:54:04;62.38;;;58.20;;
54897;SDS011;40800;52.704;6.398;2023-05-07T01:56:31;61.80;;;57.70;;
54897;SDS011;40800;52.704;6.398;2023-05-07T01:58:57;66.07;;;61.67;;
54897;SDS011;40800;52.704;6.398;2023-05-07T02:01:22;65.07;;;60.60;;
54897;SDS011;40800;52.704;6.398;2023-05-07T02:03:48;66.70;;;62.25;;
54897;SDS011;40800;52.704;6.398;2023-05-07T02:06:14;64.60;;;60.20;;
54897;SDS011;40800;52.704;6.398;2023-05-07T02:08:39;62.28;;;58.17;;
54897;SDS011;40800;52.704;6.398;2023-05-07T02:11:05;63.67;;;59.20;;
54897;SDS011;40800;52.704;6.398;2023-05-07T02:13:31;65.53;;;60.90;;
54897;SDS011;40800;52.704;6.398;2023-05-07T02:15:58;67.88;;;63.17;;
54897;SDS011;40800;52.704;6.398;2023-05-07T02:18:23;69.13;;;64.53;;
54897;SDS011;40800;52.704;6.398;2023-05-07T02:20:49;67.10;;;62.40;;
54897;SDS011;40800;52.704;6.398;2023-05-07T02:23:15;66.63;;;62.13;;
54897;SDS011;40800;52.704;6.398;2023-05-07T02:25:40;66.85;;;62.00;;
54897;SDS011;40800;52.704;6.398;2023-05-07T02:28:06;67.38;;;62.72;;
54897;SDS011;40800;52.704;6.398;2023-05-07T02:30:31;69.13;;;64.13;;
54897;SDS011;40800;52.704;6.398;2023-05-07T02:32:58;70.53;;;65.65;;
54897;SDS011;40800;52.704;6.398;2023-05-07T02:35:24;67.75;;;63.05;;
54897;SDS011;40800;52.704;6.398;2023-05-07T02:37:50;69.05;;;64.13;;
54897;SDS011;40800;52.704;6.398;2023-05-07T02:40:15;69.10;;;64.25;;
54897;SDS011;40800;52.704;6.398;2023-05-07T02:42:41;67.45;;;62.70;;
54897;SDS011;40800;52.704;6.398;2023-05-07T02:45:07;67.50;;;62.80;;
54897;SDS011;40800;52.704;6.398;2023-05-07T02:47:33;67.73;;;63.00;;
54897;SDS011;40800;52.704;6.398;2023-05-07T02:49:58;69.03;;;64.43;;
54897;SDS011;40800;52.704;6.398;2023-05-07T02:52:24;70.03;;;65.22;;
54897;SDS011;40800;52.704;6.398;2023-05-07T02:54:49;70.13;;;65.03;;
54897;SDS011;40800;52.704;6.398;2023-05-07T02:57:15;68.57;;;63.75;;
54897;SDS011;40800;52.704;6.398;2023-05-07T02:59:41;69.55;;;64.72;;
54897;SDS011;40800;52.704;6.398;2023-05-07T03:02:07;70.13;;;65.23;;
54897;SDS011;40800;52.704;6.398;2023-05-07T03:04:32;67.07;;;62.13;;
54897;SDS011;40800;52.704;6.398;2023-05-07T03:06:58;70.90;;;66.00;;
54897;SDS011;40800;52.704;6.398;2023-05-07T03:09:23;69.63;;;64.72;;
54897;SDS011;40800;52.704;6.398;2023-05-07T03:11:49;69.88;;;64.88;;
54897;SDS011;40800;52.704;6.398;2023-05-07T03:14:15;72.45;;;67.07;;
54897;SDS011;40800;52.704;6.398;2023-05-07T03:16:40;69.93;;;64.90;;
54897;SDS011;40800;52.704;6.398;2023-05-07T03:19:06;68.80;;;63.90;;
54897;SDS011;40800;52.704;6.398;2023-05-07T03:21:31;71.82;;;66.82;;
54897;SDS011;40800;52.704;6.398;2023-05-07T03:23:58;72.18;;;66.82;;
54897;SDS011;40800;52.704;6.398;2023-05-07T03:26:24;70.18;;;64.90;;
54897;SDS011;40800;52.704;6.398;2023-05-07T03:28:50;73.72;;;68.05;;
54897;SDS011;40800;52.704;6.398;2023-05-07T03:31:16;71.35;;;66.18;;
54897;SDS011;40800;52.704;6.398;2023-05-07T03:33:55;68.63;;;63.38;;
54897;SDS011;40800;52.704;6.398;2023-05-07T03:36:22;72.03;;;66.65;;
54897;SDS011;40800;52.704;6.398;2023-05-07T03:38:48;71.03;;;65.73;;
54897;SDS011;40800;52.704;6.398;2023-05-07T03:41:14;71.03;;;65.68;;
54897;SDS011;40800;52.704;6.398;2023-05-07T03:43:40;72.18;;;66.72;;
54897;SDS011;40800;52.704;6.398;2023-05-07T03:46:06;72.45;;;67.05;;
54897;SDS011;40800;52.704;6.398;2023-05-07T03:48:31;72.70;;;67.35;;
54897;SDS011;40800;52.704;6.398;2023-05-07T03:50:57;72.80;;;67.30;;
54897;SDS011;40800;52.704;6.398;2023-05-07T03:53:23;73.82;;;68.03;;
54897;SDS011;40800;52.704;6.398;2023-05-07T03:55:49;71.95;;;66.30;;
54897;SDS011;40800;52.704;6.398;2023-05-07T03:58:15;75.93;;;70.05;;
54897;SDS011;40800;52.704;6.398;2023-05-07T04:00:40;72.63;;;66.93;;
54897;SDS011;40800;52.704;6.398;2023-05-07T04:03:06;72.50;;;66.82;;
54897;SDS011;40800;52.704;6.398;2023-05-07T04:05:32;73.03;;;67.32;;
54897;SDS011;40800;52.704;6.398;2023-05-07T04:07:58;75.68;;;69.82;;
54897;SDS011;40800;52.704;6.398;2023-05-07T04:10:24;77.18;;;71.28;;
54897;SDS011;40800;52.704;6.398;2023-05-07T04:12:50;78.28;;;72.45;;
54897;SDS011;40800;52.704;6.398;2023-05-07T04:15:15;92.60;;;85.85;;
54897;SDS011;40800;52.704;6.398;2023-05-07T04:17:41;76.43;;;70.10;;
54897;SDS011;40800;52.704;6.398;2023-05-07T04:20:08;77.68;;;71.18;;
54897;SDS011;40800;52.704;6.398;2023-05-07T04:22:35;77.47;;;71.28;;
54897;SDS011;40800;52.704;6.398;2023-05-07T04:25:01;77.45;;;71.20;;
54897;SDS011;40800;52.704;6.398;2023-05-07T04:27:27;79.20;;;72.60;;
54897;SDS011;40800;52.704;6.398;2023-05-07T04:29:53;79.07;;;72.65;;
54897;SDS011;40800;52.704;6.398;2023-05-07T04:32:21;78.85;;;72.45;;
54897;SDS011;40800;52.704;6.398;2023-05-07T04:34:47;77.38;;;71.32;;
54897;SDS011;40800;52.704;6.398;2023-05-07T04:37:13;78.40;;;72.13;;
54897;SDS011;40800;52.704;6.398;2023-05-07T04:39:38;77.72;;;71.35;;
54897;SDS011;40800;52.704;6.398;2023-05-07T04:42:04;77.78;;;71.35;;
54897;SDS011;40800;52.704;6.398;2023-05-07T04:44:30;80.38;;;73.75;;
54897;SDS011;40800;52.704;6.398;2023-05-07T04:46:56;79.55;;;72.93;;
54897;SDS011;40800;52.704;6.398;2023-05-07T04:49:22;78.53;;;72.30;;
54897;SDS011;40800;52.704;6.398;2023-05-07T04:51:47;80.45;;;73.82;;
54897;SDS011;40800;52.704;6.398;2023-05-07T04:54:13;81.05;;;74.32;;
54897;SDS011;40800;52.704;6.398;2023-05-07T04:56:38;78.68;;;72.05;;
54897;SDS011;40800;52.704;6.398;2023-05-07T04:59:04;78.07;;;71.68;;
54897;SDS011;40800;52.704;6.398;2023-05-07T05:01:30;78.90;;;72.63;;
54897;SDS011;40800;52.704;6.398;2023-05-07T05:03:56;79.25;;;72.63;;
54897;SDS011;40800;52.704;6.398;2023-05-07T05:06:21;75.43;;;69.53;;
54897;SDS011;40800;52.704;6.398;2023-05-07T05:08:47;77.50;;;71.18;;
54897;SDS011;40800;52.704;6.398;2023-05-07T05:11:12;77.88;;;71.57;;
54897;SDS011;40800;52.704;6.398;2023-05-07T05:13:38;77.78;;;71.60;;
54897;SDS011;40800;52.704;6.398;2023-05-07T05:16:04;77.13;;;70.93;;
54897;SDS011;40800;52.704;6.398;2023-05-07T05:18:30;78.40;;;71.97;;
54897;SDS011;40800;52.704;6.398;2023-05-07T05:20:56;77.05;;;70.80;;
54897;SDS011;40800;52.704;6.398;2023-05-07T05:23:21;77.22;;;70.97;;
54897;SDS011;40800;52.704;6.398;2023-05-07T05:25:47;74.88;;;68.68;;
54897;SDS011;40800;52.704;6.398;2023-05-07T05:28:13;75.82;;;69.80;;
54897;SDS011;40800;52.704;6.398;2023-05-07T05:30:38;75.80;;;69.80;;
54897;SDS011;40800;52.704;6.398;2023-05-07T05:33:04;73.93;;;68.03;;
54897;SDS011;40800;52.704;6.398;2023-05-07T05:35:30;74.93;;;68.97;;
54897;SDS011;40800;52.704;6.398;2023-05-07T05:37:55;75.90;;;69.88;;
54897;SDS011;40800;52.704;6.398;2023-05-07T05:40:21;74.75;;;68.82;;
54897;SDS011;40800;52.704;6.398;2023-05-07T05:42:47;74.50;;;68.57;;
54897;SDS011;40800;52.704;6.398;2023-05-07T05:45:12;70.70;;;65.20;;
54897;SDS011;40800;52.704;6.398;2023-05-07T05:47:38;73.47;;;67.75;;
54897;SDS011;40800;52.704;6.398;2023-05-07T05:50:05;71.33;;;65.87;;
54897;SDS011;40800;52.704;6.398;2023-05-07T05:52:31;73.72;;;68.03;;
54897;SDS011;40800;52.704;6.398;2023-05-07T05:54:56;72.03;;;66.35;;
54897;SDS011;40800;52.704;6.398;2023-05-07T05:57:22;69.55;;;64.20;;
54897;SDS011;40800;52.704;6.398;2023-05-07T05:59:48;71.88;;;66.22;;
54897;SDS011;40800;52.704;6.398;2023-05-07T06:02:13;70.35;;;64.63;;
54897;SDS011;40800;52.704;6.398;2023-05-07T06:04:39;69.95;;;64.65;;
54897;SDS011;40800;52.704;6.398;2023-05-07T06:07:05;69.80;;;64.40;;
54897;SDS011;40800;52.704;6.398;2023-05-07T06:09:30;69.63;;;64.05;;
54897;SDS011;40800;52.704;6.398;2023-05-07T06:11:56;70.15;;;64.72;;
54897;SDS011;40800;52.704;6.398;2023-05-07T06:14:21;70.10;;;64.70;;
54897;SDS011;40800;52.704;6.398;2023-05-07T06:16:47;70.28;;;64.85;;
54897;SDS011;40800;52.704;6.398;2023-05-07T06:19:13;70.55;;;65.28;;
54897;SDS011;40800;52.704;6.398;2023-05-07T06:21:39;70.95;;;65.53;;
54897;SDS011;40800;52.704;6.398;2023-05-07T06:24:05;69.13;;;63.83;;
54897;SDS011;40800;52.704;6.398;2023-05-07T06:26:31;70.63;;;65.22;;
54897;SDS011;40800;52.704;6.398;2023-05-07T06:28:56;68.65;;;63.35;;
54897;SDS011;40800;52.704;6.398;2023-05-07T06:31:22;71.47;;;65.95;;
54897;SDS011;40800;52.704;6.398;2023-05-07T06:33:48;68.65;;;63.45;;
54897;SDS011;40800;52.704;6.398;2023-05-07T06:36:14;70.47;;;64.93;;
54897;SDS011;40800;52.704;6.398;2023-05-07T06:38:39;70.43;;;65.18;;
54897;SDS011;40800;52.704;6.398;2023-05-07T06:41:05;70.93;;;65.55;;
54897;SDS011;40800;52.704;6.398;2023-05-07T06:43:31;68.50;;;63.22;;
54897;SDS011;40800;52.704;6.398;2023-05-07T06:45:57;71.80;;;66.35;;
54897;SDS011;40800;52.704;6.398;2023-05-07T06:48:22;70.03;;;64.63;;
54897;SDS011;40800;52.704;6.398;2023-05-07T06:50:48;68.78;;;63.47;;
54897;SDS011;40800;52.704;6.398;2023-05-07T06:53:13;70.53;;;64.95;;
54897;SDS011;40800;52.704;6.398;2023-05-07T06:55:39;71.38;;;65.90;;
54897;SDS011;40800;52.704;6.398;2023-05-07T06:58:05;72.07;;;66.60;;
54897;SDS011;40800;52.704;6.398;2023-05-07T07:00:31;70.10;;;64.68;;
54897;SDS011;40800;52.704;6.398;2023-05-07T07:02:56;71.82;;;66.28;;
54897;SDS011;40800;52.704;6.398;2023-05-07T07:05:22;71.47;;;65.80;;
54897;SDS011;40800;52.704;6.398;2023-05-07T07:07:48;70.28;;;64.78;;
54897;SDS011;40800;52.704;6.398;2023-05-07T07:10:19;69.95;;;64.55;;
54897;SDS011;40800;52.704;6.398;2023-05-07T07:12:45;70.40;;;64.90;;
54897;SDS011;40800;52.704;6.398;2023-05-07T07:15:11;71.60;;;65.82;;
54897;SDS011;40800;52.704;6.398;2023-05-07T07:17:36;70.65;;;65.00;;
54897;SDS011;40800;52.704;6.398;2023-05-07T07:20:02;69.07;;;63.28;;
54897;SDS011;40800;52.704;6.398;2023-05-07T07:22:28;67.13;;;61.80;;
54897;SDS011;40800;52.704;6.398;2023-05-07T07:24:54;66.90;;;61.60;;
54897;SDS011;40800;52.704;6.398;2023-05-07T07:27:19;69.93;;;64.43;;
54897;SDS011;40800;52.704;6.398;2023-05-07T07:29:45;69.75;;;64.28;;
54897;SDS011;40800;52.704;6.398;2023-05-07T07:32:10;70.45;;;64.97;;
54897;SDS011;40800;52.704;6.398;2023-05-07T07:34:36;71.00;;;65.40;;
54897;SDS011;40800;52.704;6.398;2023-05-07T07:37:02;69.38;;;64.07;;
54897;SDS011;40800;52.704;6.398;2023-05-07T07:39:30;69.45;;;63.88;;
54897;SDS011;40800;52.704;6.398;2023-05-07T07:41:57;68.95;;;63.53;;
54897;SDS011;40800;52.704;6.398;2023-05-07T07:44:22;67.25;;;61.90;;
54897;SDS011;40800;52.704;6.398;2023-05-07T07:46:48;69.15;;;63.67;;
54897;SDS011;40800;52.704;6.398;2023-05-07T07:49:13;68.43;;;63.22;;
54897;SDS011;40800;52.704;6.398;2023-05-07T07:51:39;67.68;;;62.38;;
54897;SDS011;40800;52.704;6.398;2023-05-07T07:54:05;66.88;;;61.67;;
54897;SDS011;40800;52.704;6.398;2023-05-07T07:56:32;65.82;;;60.67;;
54897;SDS011;40800;52.704;6.398;2023-05-07T07:58:58;65.93;;;60.67;;
54897;SDS011;40800;52.704;6.398;2023-05-07T08:01:24;65.28;;;60.05;;
54897;SDS011;40800;52.704;6.398;2023-05-07T08:03:49;63.88;;;58.80;;
54897;SDS011;40800;52.704;6.398;2023-05-07T08:06:15;64.50;;;59.40;;
54897;SDS011;40800;52.704;6.398;2023-05-07T08:08:41;65.40;;;60.15;;
54897;SDS011;40800;52.704;6.398;2023-05-07T08:11:06;64.90;;;59.80;;
54897;SDS011;40800;52.704;6.398;2023-05-07T08:13:32;65.97;;;60.65;;
54897;SDS011;40800;52.704;6.398;2023-05-07T08:15:57;64.10;;;59.00;;
54897;SDS011;40800;52.704;6.398;2023-05-07T08:18:23;65.32;;;60.05;;
54897;SDS011;40800;52.704;6.398;2023-05-07T08:20:50;64.05;;;58.83;;
54897;SDS011;40800;52.704;6.398;2023-05-07T08:23:15;64.53;;;59.42;;
54897;SDS011;40800;52.704;6.398;2023-05-07T08:25:41;65.07;;;59.78;;
54897;SDS011;40800;52.704;6.398;2023-05-07T08:28:07;62.72;;;57.53;;
54897;SDS011;40800;52.704;6.398;2023-05-07T08:30:33;60.00;;;55.20;;
54897;SDS011;40800;52.704;6.398;2023-05-07T08:32:59;61.53;;;56.53;;
54897;SDS011;40800;52.704;6.398;2023-05-07T08:35:25;62.05;;;57.03;;
54897;SDS011;40800;52.704;6.398;2023-05-07T08:37:52;61.88;;;56.97;;
54897;SDS011;40800;52.704;6.398;2023-05-07T08:40:17;61.83;;;56.65;;
54897;SDS011;40800;52.704;6.398;2023-05-07T08:42:43;57.47;;;52.88;;
54897;SDS011;40800;52.704;6.398;2023-05-07T08:45:10;54.28;;;49.80;;
54897;SDS011;40800;52.704;6.398;2023-05-07T08:47:42;68.90;;;64.07;;
54897;SDS011;40800;52.704;6.398;2023-05-07T08:50:10;54.35;;;49.85;;
54897;SDS011;40800;52.704;6.398;2023-05-07T08:52:36;54.78;;;50.30;;
54897;SDS011;40800;52.704;6.398;2023-05-07T08:55:02;57.17;;;52.58;;
54897;SDS011;40800;52.704;6.398;2023-05-07T08:57:28;56.43;;;51.77;;
54897;SDS011;40800;52.704;6.398;2023-05-07T08:59:54;56.30;;;51.37;;
54897;SDS011;40800;52.704;6.398;2023-05-07T09:02:20;55.53;;;50.78;;
54897;SDS011;40800;52.704;6.398;2023-05-07T09:04:45;55.90;;;51.20;;
54897;SDS011;40800;52.704;6.398;2023-05-07T09:07:11;52.72;;;48.33;;
54897;SDS011;40800;52.704;6.398;2023-05-07T09:09:37;50.15;;;45.70;;
54897;SDS011;40800;52.704;6.398;2023-05-07T09:12:02;47.45;;;43.15;;
54897;SDS011;40800;52.704;6.398;2023-05-07T09:14:29;48.72;;;44.58;;
54897;SDS011;40800;52.704;6.398;2023-05-07T09:16:55;48.15;;;43.90;;
54897;SDS011;40800;52.704;6.398;2023-05-07T09:19:22;46.22;;;42.13;;
54897;SDS011;40800;52.704;6.398;2023-05-07T09:24:15;46.38;;;42.15;;
54897;SDS011;40800;52.704;6.398;2023-05-07T09:26:41;46.13;;;41.83;;
54897;SDS011;40800;52.704;6.398;2023-05-07T09:29:07;42.97;;;39.22;;
54897;SDS011;40800;52.704;6.398;2023-05-07T09:31:36;44.87;;;40.73;;
54897;SDS011;40800;52.704;6.398;2023-05-07T09:34:04;45.65;;;41.45;;
54897;SDS011;40800;52.704;6.398;2023-05-07T09:36:31;41.60;;;37.85;;
54897;SDS011;40800;52.704;6.398;2023-05-07T09:38:59;42.08;;;38.15;;
54897;SDS011;40800;52.704;6.398;2023-05-07T09:41:24;42.90;;;39.13;;
54897;SDS011;40800;52.704;6.398;2023-05-07T09:43:54;41.90;;;37.97;;
54897;SDS011;40800;52.704;6.398;2023-05-07T09:46:20;39.33;;;35.72;;
54897;SDS011;40800;52.704;6.398;2023-05-07T09:48:53;40.35;;;36.60;;
54897;SDS011;40800;52.704;6.398;2023-05-07T09:51:24;41.30;;;37.47;;
54897;SDS011;40800;52.704;6.398;2023-05-07T09:53:54;40.58;;;36.88;;
54897;SDS011;40800;52.704;6.398;2023-05-07T09:56:21;38.80;;;35.35;;
54897;SDS011;40800;52.704;6.398;2023-05-07T09:58:47;38.53;;;35.13;;
54897;SDS011;40800;52.704;6.398;2023-05-07T10:03:42;38.80;;;35.10;;
54897;SDS011;40800;52.704;6.398;2023-05-07T10:08:35;35.97;;;32.63;;
54897;SDS011;40800;52.704;6.398;2023-05-07T10:11:03;36.45;;;32.75;;
54897;SDS011;40800;52.704;6.398;2023-05-07T10:13:29;33.90;;;30.90;;
54897;SDS011;40800;52.704;6.398;2023-05-07T10:15:55;34.97;;;31.60;;
54897;SDS011;40800;52.704;6.398;2023-05-07T10:18:21;34.60;;;31.08;;
54897;SDS011;40800;52.704;6.398;2023-05-07T10:20:48;32.58;;;29.42;;
54897;SDS011;40800;52.704;6.398;2023-05-07T10:23:18;33.00;;;29.80;;
54897;SDS011;40800;52.704;6.398;2023-05-07T10:25:49;147.57;;;35.78;;
54897;SDS011;40800;52.704;6.398;2023-05-07T10:28:14;132.98;;;36.22;;
54897;SDS011;40800;52.704;6.398;2023-05-07T10:33:11;31.58;;;28.40;;
54897;SDS011;40800;52.704;6.398;2023-05-07T10:35:40;32.17;;;29.08;;
54897;SDS011;40800;52.704;6.398;2023-05-07T10:38:08;32.38;;;29.27;;
54897;SDS011;40800;52.704;6.398;2023-05-07T10:40:34;32.08;;;29.17;;
54897;SDS011;40800;52.704;6.398;2023-05-07T10:43:02;29.75;;;26.55;;
54897;SDS011;40800;52.704;6.398;2023-05-07T10:45:32;29.60;;;26.42;;
54897;SDS011;40800;52.704;6.398;2023-05-07T10:48:05;27.83;;;24.83;;
54897;SDS011;40800;52.704;6.398;2023-05-07T10:50:35;28.65;;;25.75;;
54897;SDS011;40800;52.704;6.398;2023-05-07T10:55:46;27.40;;;23.90;;
54897;SDS011;40800;52.704;6.398;2023-05-07T10:58:29;26.27;;;23.48;;
54897;SDS011;40800;52.704;6.398;2023-05-07T11:00:58;25.02;;;22.42;;
54897;SDS011;40800;52.704;6.398;2023-05-07T11:03:25;24.50;;;22.05;;
54897;SDS011;40800;52.704;6.398;2023-05-07T11:06:11;25.87;;;23.27;;
54897;SDS011;40800;52.704;6.398;2023-05-07T11:11:18;25.30;;;22.63;;
54897;SDS011;40800;52.704;6.398;2023-05-07T11:13:47;24.40;;;21.90;;
54897;SDS011;40800;52.704;6.398;2023-05-07T11:18:50;23.80;;;21.40;;
54897;SDS011;40800;52.704;6.398;2023-05-07T11:21:33;23.13;;;20.80;;
54897;SDS011;40800;52.704;6.398;2023-05-07T11:24:00;23.88;;;21.30;;
54897;SDS011;40800;52.704;6.398;2023-05-07T11:26:28;22.92;;;20.50;;
54897;SDS011;40800;52.704;6.398;2023-05-07T11:28:56;23.67;;;21.15;;
54897;SDS011;40800;52.704;6.398;2023-05-07T11:31:23;23.15;;;20.77;;
54897;SDS011;40800;52.704;6.398;2023-05-07T11:33:51;22.30;;;19.27;;
54897;SDS011;40800;52.704;6.398;2023-05-07T11:36:17;22.50;;;20.27;;
54897;SDS011;40800;52.704;6.398;2023-05-07T11:38:43;21.48;;;19.35;;
54897;SDS011;40800;52.704;6.398;2023-05-07T11:41:09;23.20;;;19.97;;
54897;SDS011;40800;52.704;6.398;2023-05-07T11:43:35;23.02;;;20.73;;
54897;SDS011;40800;52.704;6.398;2023-05-07T11:46:08;22.77;;;20.40;;
54897;SDS011;40800;52.704;6.398;2023-05-07T11:48:35;22.63;;;20.17;;
54897;SDS011;40800;52.704;6.398;2023-05-07T11:51:01;23.00;;;20.70;;
54897;SDS011;40800;52.704;6.398;2023-05-07T11:53:34;23.20;;;20.83;;
54897;SDS011;40800;52.704;6.398;2023-05-07T11:56:11;24.27;;;21.67;;
54897;SDS011;40800;52.704;6.398;2023-05-07T11:58:39;23.55;;;21.25;;
54897;SDS011;40800;52.704;6.398;2023-05-07T12:01:09;22.38;;;20.17;;
54897;SDS011;40800;52.704;6.398;2023-05-07T12:03:36;22.48;;;20.08;;
54897;SDS011;40800;52.704;6.398;2023-05-07T12:06:02;22.02;;;19.65;;
54897;SDS011;40800;52.704;6.398;2023-05-07T12:08:31;19.73;;;17.83;;
54897;SDS011;40800;52.704;6.398;2023-05-07T12:10:56;21.97;;;19.67;;
54897;SDS011;40800;52.704;6.398;2023-05-07T12:13:22;22.15;;;19.85;;
54897;SDS011;40800;52.704;6.398;2023-05-07T12:15:52;23.15;;;20.85;;
54897;SDS011;40800;52.704;6.398;2023-05-07T12:18:19;22.85;;;20.50;;
54897;SDS011;40800;52.704;6.398;2023-05-07T12:20:46;23.17;;;20.67;;
54897;SDS011;40800;52.704;6.398;2023-05-07T12:23:12;23.52;;;21.10;;
54897;SDS011;40800;52.704;6.398;2023-05-07T12:25:38;23.43;;;20.93;;
54897;SDS011;40800;52.704;6.398;2023-05-07T12:28:05;23.52;;;20.95;;
54897;SDS011;40800;52.704;6.398;2023-05-07T12:30:38;23.80;;;21.27;;
54897;SDS011;40800;52.704;6.398;2023-05-07T12:33:04;23.10;;;20.75;;
54897;SDS011;40800;52.704;6.398;2023-05-07T12:35:30;24.67;;;22.27;;
54897;SDS011;40800;52.704;6.398;2023-05-07T12:37:57;22.55;;;20.20;;
54897;SDS011;40800;52.704;6.398;2023-05-07T12:40:25;23.73;;;21.30;;
54897;SDS011;40800;52.704;6.398;2023-05-07T12:43:03;22.10;;;19.80;;
54897;SDS011;40800;52.704;6.398;2023-05-07T12:45:29;22.13;;;19.92;;
54897;SDS011;40800;52.704;6.398;2023-05-07T12:47:54;21.95;;;19.75;;
54897;SDS011;40800;52.704;6.398;2023-05-07T12:50:30;21.25;;;18.90;;
54897;SDS011;40800;52.704;6.398;2023-05-07T12:52:57;22.27;;;20.05;;
54897;SDS011;40800;52.704;6.398;2023-05-07T12:55:22;21.93;;;19.63;;
54897;SDS011;40800;52.704;6.398;2023-05-07T12:57:48;21.30;;;19.13;;
54897;SDS011;40800;52.704;6.398;2023-05-07T13:00:15;21.58;;;19.38;;
54897;SDS011;40800;52.704;6.398;2023-05-07T13:02:41;22.03;;;19.73;;
54897;SDS011;40800;52.704;6.398;2023-05-07T13:05:11;21.88;;;19.58;;
54897;SDS011;40800;52.704;6.398;2023-05-07T13:07:36;21.95;;;19.75;;
54897;SDS011;40800;52.704;6.398;2023-05-07T13:10:03;22.33;;;20.05;;
54897;SDS011;40800;52.704;6.398;2023-05-07T13:12:29;20.88;;;18.80;;
54897;SDS011;40800;52.704;6.398;2023-05-07T13:14:55;22.20;;;19.92;;
54897;SDS011;40800;52.704;6.398;2023-05-07T13:17:20;22.52;;;20.13;;
54897;SDS011;40800;52.704;6.398;2023-05-07T13:19:46;20.95;;;18.77;;
54897;SDS011;40800;52.704;6.398;2023-05-07T13:22:11;24.15;;;21.02;;
54897;SDS011;40800;52.704;6.398;2023-05-07T13:24:37;23.60;;;21.17;;
54897;SDS011;40800;52.704;6.398;2023-05-07T13:27:03;22.55;;;20.25;;
54897;SDS011;40800;52.704;6.398;2023-05-07T13:29:29;21.40;;;19.30;;
54897;SDS011;40800;52.704;6.398;2023-05-07T13:31:58;20.95;;;18.83;;
54897;SDS011;40800;52.704;6.398;2023-05-07T13:34:23;20.77;;;18.67;;
54897;SDS011;40800;52.704;6.398;2023-05-07T13:36:49;21.25;;;19.15;;
54897;SDS011;40800;52.704;6.398;2023-05-07T13:39:15;21.25;;;17.95;;
54897;SDS011;40800;52.704;6.398;2023-05-07T13:41:40;20.30;;;18.20;;
54897;SDS011;40800;52.704;6.398;2023-05-07T13:44:06;19.20;;;17.27;;
54897;SDS011;40800;52.704;6.398;2023-05-07T13:46:32;20.40;;;18.30;;
54897;SDS011;40800;52.704;6.398;2023-05-07T13:48:57;20.52;;;18.40;;
54897;SDS011;40800;52.704;6.398;2023-05-07T13:51:23;20.07;;;18.07;;
54897;SDS011;40800;52.704;6.398;2023-05-07T13:53:48;22.17;;;18.35;;
54897;SDS011;40800;52.704;6.398;2023-05-07T13:56:14;21.38;;;19.10;;
54897;SDS011;40800;52.704;6.398;2023-05-07T13:58:40;21.05;;;18.73;;
54897;SDS011;40800;52.704;6.398;2023-05-07T14:01:05;21.73;;;19.48;;
54897;SDS011;40800;52.704;6.398;2023-05-07T14:03:31;19.60;;;17.65;;
54897;SDS011;40800;52.704;6.398;2023-05-07T14:05:58;19.92;;;17.90;;
54897;SDS011;40800;52.704;6.398;2023-05-07T14:08:26;21.60;;;19.33;;
54897;SDS011;40800;52.704;6.398;2023-05-07T14:10:52;20.58;;;18.58;;
54897;SDS011;40800;52.704;6.398;2023-05-07T14:13:17;22.23;;;19.98;;
54897;SDS011;40800;52.704;6.398;2023-05-07T14:15:43;21.48;;;19.15;;
54897;SDS011;40800;52.704;6.398;2023-05-07T14:18:11;21.63;;;19.42;;
54897;SDS011;40800;52.704;6.398;2023-05-07T14:20:37;22.20;;;19.98;;
54897;SDS011;40800;52.704;6.398;2023-05-07T14:23:03;21.83;;;19.65;;
54897;SDS011;40800;52.704;6.398;2023-05-07T14:25:28;22.42;;;20.23;;
54897;SDS011;40800;52.704;6.398;2023-05-07T14:27:54;22.25;;;20.05;;
54897;SDS011;40800;52.704;6.398;2023-05-07T14:30:20;21.90;;;19.60;;
54897;SDS011;40800;52.704;6.398;2023-05-07T14:32:49;20.95;;;18.83;;
54897;SDS011;40800;52.704;6.398;2023-05-07T14:35:15;20.48;;;18.40;;